Time;durP1;ratioP1;P1;durP2;ratioP2;P2;SDS_P1;SDS_P2;PMS_P1;PMS_P2;Temp;Humidity;BMP_temperature;BMP_pressure;BME280_temperature;BME280_humidity;BME280_pressure;Samples;Min_cycle;Max_cycle;Signal;HPM_P1;HPM_P2
2021/03/06 00:00:08;;;;;;;10.70;7.03;;;1.50;1.00;;;;;;5071748;28;20531;-56
2021/03/06 00:02:34;;;;;;;10.00;7.37;;;1.40;1.00;;;;;;5080102;28;20214;-55
2021/03/06 00:04:59;;;;;;;11.50;9.07;;;1.40;1.00;;;;;;5088247;28;20969;-55
2021/03/06 00:07:25;;;;;;;12.80;8.13;;;1.40;1.00;;;;;;5071347;28;20567;-55
2021/03/06 00:09:50;;;;;;;11.10;8.40;;;1.30;1.00;;;;;;5071542;28;20199;-54
2021/03/06 00:12:16;;;;;;;11.27;7.63;;;1.30;1.00;;;;;;5071616;28;20180;-55
2021/03/06 00:14:42;;;;;;;10.47;7.50;;;1.30;1.00;;;;;;5074377;28;20183;-56
2021/03/06 00:17:07;;;;;;;13.43;8.67;;;1.10;1.00;;;;;;5091113;28;20185;-54
2021/03/06 00:19:33;;;;;;;10.90;7.30;;;1.30;1.00;;;;;;5070823;28;20187;-57
2021/03/06 00:21:58;;;;;;;10.83;7.20;;;1.30;1.00;;;;;;5085336;28;20182;-55
2021/03/06 00:24:24;;;;;;;9.83;7.70;;;1.30;1.00;;;;;;5091349;28;20675;-54
2021/03/06 00:26:50;;;;;;;9.90;8.43;;;1.20;1.00;;;;;;5071872;28;20291;-56
2021/03/06 00:29:15;;;;;;;11.40;8.20;;;1.20;1.00;;;;;;5086916;28;20609;-56
2021/03/06 00:31:41;;;;;;;14.37;8.10;;;1.20;1.00;;;;;;5091336;28;20434;-55
2021/03/06 00:34:07;;;;;;;11.73;7.60;;;1.20;1.00;;;;;;5074531;28;20176;-55
2021/03/06 00:36:33;;;;;;;9.27;8.27;;;1.20;1.00;;;;;;5071210;28;20444;-57
2021/03/06 00:38:59;;;;;;;11.63;8.07;;;1.20;1.00;;;;;;5070786;28;20438;-56
2021/03/06 00:41:25;;;;;;;12.60;8.80;;;1.10;1.00;;;;;;5071041;28;20433;-55
2021/03/06 00:43:50;;;;;;;12.40;8.17;;;1.10;1.00;;;;;;5070825;28;20209;-54
2021/03/06 00:46:16;;;;;;;9.60;7.70;;;1.10;1.00;;;;;;5071110;28;20220;-55
2021/03/06 00:48:41;;;;;;;9.93;8.13;;;1.10;1.00;;;;;;5079608;28;20204;-54
2021/03/06 00:51:07;;;;;;;7.90;7.10;;;1.10;1.00;;;;;;5080098;28;20188;-55
2021/03/06 00:53:37;;;;;;;8.57;6.90;;;1.20;1.00;;;;;;5075653;28;20176;-57
2021/03/06 00:56:03;;;;;;;9.73;8.43;;;1.10;1.00;;;;;;5071015;28;20264;-56
2021/03/06 00:58:28;;;;;;;13.43;8.80;;;1.00;1.00;;;;;;5070837;28;20441;-54
2021/03/06 01:00:54;;;;;;;10.43;6.80;;;1.00;1.00;;;;;;5084804;28;20493;-54
2021/03/06 01:03:20;;;;;;;10.83;8.67;;;1.00;1.00;;;;;;5091198;28;20177;-55
2021/03/06 01:05:45;;;;;;;13.27;8.17;;;1.00;1.00;;;;;;5091022;28;20632;-55
2021/03/06 01:08:11;;;;;;;14.57;9.07;;;1.10;1.00;;;;;;5090458;28;20731;-55
2021/03/06 01:10:39;;;;;;;8.73;7.60;;;3.20;1.00;;;;;;5068803;28;20189;-54
2021/03/06 01:13:06;;;;;;;10.73;7.67;;;1.10;1.00;;;;;;5078378;28;20179;-55
2021/03/06 01:15:32;;;;;;;10.67;8.20;;;1.10;1.00;;;;;;5075607;28;20451;-54
2021/03/06 01:17:58;;;;;;;10.97;7.80;;;1.00;1.00;;;;;;5069067;28;20447;-56
2021/03/06 01:20:24;;;;;;;9.17;8.03;;;1.00;1.00;;;;;;5070869;28;20526;-55
2021/03/06 01:22:50;;;;;;;9.00;7.77;;;1.00;1.00;;;;;;5070868;28;20202;-55
2021/03/06 01:25:16;;;;;;;11.30;7.70;;;1.00;1.00;;;;;;5070785;28;20445;-54
2021/03/06 01:27:42;;;;;;;9.07;8.17;;;0.90;1.00;;;;;;5072224;28;20211;-57
2021/03/06 01:30:10;;;;;;;9.53;7.33;;;0.90;1.00;;;;;;5073499;28;20453;-55
2021/03/06 01:32:36;;;;;;;12.00;8.87;;;1.00;1.00;;;;;;5074855;28;20560;-55
2021/03/06 01:35:03;;;;;;;10.87;8.20;;;0.90;1.00;;;;;;5074549;28;20429;-56
2021/03/06 01:37:29;;;;;;;10.33;8.27;;;0.90;1.00;;;;;;5074223;28;20239;-54
2021/03/06 01:39:55;;;;;;;10.10;7.43;;;0.80;1.00;;;;;;5074539;28;20475;-54
2021/03/06 01:42:22;;;;;;;10.37;8.33;;;0.80;1.00;;;;;;5074602;28;20238;-55
2021/03/06 01:44:47;;;;;;;11.03;7.70;;;0.80;1.00;;;;;;5081856;28;20665;-55
2021/03/06 01:47:13;;;;;;;8.90;7.00;;;0.70;1.00;;;;;;5075127;28;20576;-54
2021/03/06 01:49:38;;;;;;;11.03;8.50;;;0.70;1.00;;;;;;5087487;28;20274;-56
2021/03/06 01:52:04;;;;;;;10.77;8.30;;;0.80;1.00;;;;;;5087511;28;20180;-54
2021/03/06 01:54:30;;;;;;;12.73;8.30;;;0.70;1.00;;;;;;5094290;28;20187;-56
2021/03/06 01:56:56;;;;;;;13.00;7.93;;;0.80;1.00;;;;;;5076678;28;20179;-55
2021/03/06 01:59:22;;;;;;;9.70;7.10;;;0.80;1.00;;;;;;5074459;28;21069;-56
2021/03/06 02:01:48;;;;;;;10.87;8.30;;;0.70;1.00;;;;;;5074247;28;20680;-55
2021/03/06 02:04:14;;;;;;;12.10;7.87;;;0.70;1.00;;;;;;5073963;28;20530;-54
2021/03/06 02:06:40;;;;;;;12.97;9.30;;;0.70;1.00;;;;;;5086340;28;20467;-55
2021/03/06 02:09:06;;;;;;;10.07;7.30;;;0.70;1.00;;;;;;5094093;28;20236;-55
2021/03/06 02:11:52;;;;;;;10.70;9.10;;;0.70;1.00;;;;;;5091139;28;22107;-55
2021/03/06 02:14:44;;;;;;;10.17;7.63;;;0.70;1.00;;;;;;5073703;28;20518;-55
2021/03/06 02:17:53;;;;;;;10.30;8.73;;;0.70;1.00;;;;;;5073503;28;20570;-55
2021/03/06 02:20:34;;;;;;;9.47;8.47;;;0.70;1.00;;;;;;5071244;28;20465;-56
2021/03/06 02:23:37;;;;;;;12.13;8.10;;;0.60;1.00;;;;;;5079443;28;20456;-55
2021/03/06 02:26:40;;;;;;;13.13;8.00;;;0.60;1.00;;;;;;5073632;28;20456;-55
2021/03/06 02:29:23;;;;;;;9.03;7.67;;;0.60;1.00;;;;;;5073739;28;20468;-56
2021/03/06 02:31:51;;;;;;;10.37;7.97;;;0.60;1.00;;;;;;5072497;28;20441;-56
2021/03/06 02:34:21;;;;;;;10.70;9.20;;;0.60;1.00;;;;;;5089702;28;20433;-55
2021/03/06 02:36:50;;;;;;;9.97;8.70;;;0.60;1.00;;;;;;5090535;28;20451;-55
2021/03/06 02:39:19;;;;;;;10.70;8.00;;;0.60;1.00;;;;;;5072827;28;20931;-54
2021/03/06 02:41:48;;;;;;;9.83;7.60;;;0.60;1.00;;;;;;5088749;28;20530;-55
2021/03/06 02:44:15;;;;;;;11.47;8.60;;;0.60;1.00;;;;;;5093683;28;20787;-55
2021/03/06 02:46:42;;;;;;;10.60;7.90;;;0.60;1.00;;;;;;5073201;28;20519;-55
2021/03/06 02:49:07;;;;;;;11.40;9.17;;;0.50;1.00;;;;;;5073567;28;20426;-55
2021/03/06 02:51:41;;;;;;;9.90;7.80;;;0.50;1.00;;;;;;5073033;28;20943;-56
2021/03/06 02:54:07;;;;;;;11.77;8.07;;;0.50;1.00;;;;;;5089446;28;20270;-55
2021/03/06 02:56:35;;;;;;;10.43;7.03;;;0.60;1.00;;;;;;5086443;28;20437;-55
2021/03/06 02:59:32;;;;;;;10.40;8.23;;;0.50;1.00;;;;;;5074616;28;20481;-57
2021/03/06 03:02:40;;;;;;;11.10;8.37;;;0.50;1.00;;;;;;5069177;28;20538;-55
2021/03/06 03:05:27;;;;;;;9.33;8.30;;;0.50;1.00;;;;;;5071927;28;20517;-54
2021/03/06 03:08:07;;;;;;;12.40;9.00;;;0.40;1.00;;;;;;5071367;28;20453;-53
2021/03/06 03:10:37;;;;;;;8.23;7.20;;;0.40;1.00;;;;;;5083221;28;20449;-55
2021/03/06 03:13:18;;;;;;;10.53;8.13;;;0.40;1.00;;;;;;5093127;28;20909;-55
2021/03/06 03:15:55;;;;;;;9.83;8.27;;;0.40;1.00;;;;;;5093030;28;20536;-54
2021/03/06 03:18:27;;;;;;;10.70;7.57;;;0.40;1.00;;;;;;5069053;28;20472;-56
2021/03/06 03:20:59;;;;;;;9.50;7.73;;;0.40;1.00;;;;;;5074319;28;21003;-53
2021/03/06 03:23:35;;;;;;;11.43;8.67;;;0.30;1.00;;;;;;5072314;28;20908;-54
2021/03/06 03:26:05;;;;;;;16.03;9.40;;;0.30;1.00;;;;;;5075367;28;20811;-55
2021/03/06 03:28:32;;;;;;;8.83;8.00;;;0.30;1.00;;;;;;5092586;28;20475;-54
2021/03/06 03:31:00;;;;;;;12.37;7.37;;;0.30;1.00;;;;;;5080719;28;20435;-56
2021/03/06 03:33:26;;;;;;;9.63;8.43;;;0.30;1.00;;;;;;5072383;28;20426;-54
2021/03/06 03:35:52;;;;;;;10.40;8.00;;;0.30;1.00;;;;;;5074742;28;20893;-56
2021/03/06 03:38:18;;;;;;;9.13;7.30;;;0.20;1.00;;;;;;5089058;28;20442;-55
2021/03/06 03:40:45;;;;;;;10.67;8.03;;;0.20;1.00;;;;;;5092107;28;20424;-55
2021/03/06 03:43:12;;;;;;;9.37;8.40;;;0.20;1.00;;;;;;5073787;28;20508;-56
2021/03/06 03:45:38;;;;;;;10.00;7.67;;;0.20;1.00;;;;;;5070507;28;20513;-55
2021/03/06 03:48:04;;;;;;;10.87;8.10;;;0.20;1.00;;;;;;5076203;28;20508;-56
2021/03/06 03:50:30;;;;;;;10.13;7.27;;;0.30;1.00;;;;;;5082354;28;20787;-55
2021/03/06 03:52:57;;;;;;;9.53;8.07;;;0.30;1.00;;;;;;5075380;28;20450;-55
2021/03/06 03:55:24;;;;;;;10.60;7.50;;;0.20;1.00;;;;;;5071152;28;20437;-55
2021/03/06 03:57:50;;;;;;;8.90;7.23;;;0.20;1.00;;;;;;5069859;28;20533;-53
2021/03/06 04:00:18;;;;;;;13.30;8.50;;;0.10;1.00;;;;;;5070064;28;20860;-54
2021/03/06 04:02:45;;;;;;;14.57;8.90;;;0.10;1.00;;;;;;5071686;28;20449;-54
2021/03/06 04:05:11;;;;;;;12.33;7.53;;;0.10;1.00;;;;;;5075809;28;20448;-54
2021/03/06 04:07:50;;;;;;;7.90;7.10;;;0.00;1.00;;;;;;5091838;28;20927;-55
2021/03/06 04:10:18;;;;;;;10.53;7.80;;;0.10;1.00;;;;;;5080187;28;20430;-54
2021/03/06 04:12:44;;;;;;;10.87;7.27;;;0.20;1.00;;;;;;5071401;28;20449;-55
2021/03/06 04:15:12;;;;;;;13.00;7.97;;;0.20;1.00;;;;;;5081168;28;20449;-55
2021/03/06 04:17:38;;;;;;;8.80;7.37;;;0.10;1.00;;;;;;5070736;28;20437;-56
2021/03/06 04:20:07;;;;;;;8.13;6.53;;;0.10;1.00;;;;;;5075468;28;21007;-55
2021/03/06 04:22:32;;;;;;;10.37;7.60;;;0.10;1.00;;;;;;5068884;28;20535;-55
2021/03/06 04:24:58;;;;;;;8.67;6.53;;;0.10;1.00;;;;;;5068764;28;20461;-55
2021/03/06 04:27:24;;;;;;;13.53;7.80;;;0.10;1.00;;;;;;5076493;28;20302;-54
2021/03/06 04:29:50;;;;;;;8.53;7.00;;;0.10;1.00;;;;;;5082389;28;20183;-55
2021/03/06 04:32:15;;;;;;;10.17;7.20;;;0.10;1.00;;;;;;5070771;28;20463;-54
2021/03/06 04:34:41;;;;;;;7.83;6.80;;;0.10;1.00;;;;;;5091590;28;20624;-56
2021/03/06 04:37:07;;;;;;;8.67;7.40;;;0.00;1.00;;;;;;5077805;28;20214;-56
2021/03/06 04:39:32;;;;;;;10.20;7.00;;;0.00;1.00;;;;;;5070282;28;20289;-54
2021/03/06 04:42:00;;;;;;;10.00;7.17;;;0.00;1.00;;;;;;5069558;28;20187;-56
2021/03/06 04:44:26;;;;;;;9.30;7.17;;;;;;;;;;5083114;28;20183;-53
2021/03/06 04:46:52;;;;;;;9.07;7.20;;;0.00;1.00;;;;;;5077901;28;20497;-56
2021/03/06 04:49:18;;;;;;;7.33;6.63;;;1.80;1.00;;;;;;5070619;28;20517;-55
2021/03/06 04:51:44;;;;;;;8.93;6.70;;;0.00;1.00;;;;;;5067471;28;20540;-55
2021/03/06 04:54:09;;;;;;;11.37;7.90;;;0.00;1.00;;;;;;5071002;28;20183;-55
2021/03/06 04:56:35;;;;;;;8.70;7.57;;;0.00;1.00;;;;;;5072795;28;20451;-55
2021/03/06 04:59:01;;;;;;;8.67;6.80;;;-0.10;1.00;;;;;;5079836;28;20535;-56
2021/03/06 05:01:26;;;;;;;10.87;7.30;;;-0.10;1.00;;;;;;5077884;28;20653;-56
2021/03/06 05:03:52;;;;;;;11.23;7.50;;;-0.20;1.00;;;;;;5070837;28;20172;-55
2021/03/06 05:06:18;;;;;;;7.30;6.60;;;-0.20;1.00;;;;;;5070667;28;20235;-56
2021/03/06 05:08:43;;;;;;;10.23;6.77;;;-0.10;6.30;;;;;;5069516;28;20516;-56
2021/03/06 05:11:09;;;;;;;11.73;7.57;;;-0.10;6.70;;;;;;5070805;28;20195;-54
2021/03/06 05:13:35;;;;;;;9.40;7.37;;;-0.10;5.20;;;;;;5070418;28;20716;-55
2021/03/06 05:16:01;;;;;;;11.07;7.10;;;-0.30;4.20;;;;;;5068435;28;20206;-55
2021/03/06 05:18:26;;;;;;;10.20;6.57;;;-0.10;5.50;;;;;;5069732;28;20457;-55
2021/03/06 05:20:52;;;;;;;9.13;6.80;;;-0.10;6.70;;;;;;5069979;28;20442;-54
2021/03/06 05:23:18;;;;;;;8.90;6.87;;;-0.20;3.10;;;;;;5070394;28;20518;-56
2021/03/06 05:25:43;;;;;;;10.00;7.20;;;-0.20;7.20;;;;;;5079016;28;20700;-55
2021/03/06 05:28:09;;;;;;;12.53;8.03;;;-0.20;4.30;;;;;;5090485;28;20222;-55
2021/03/06 05:30:35;;;;;;;7.73;5.90;;;-0.10;4.90;;;;;;5070222;28;20211;-55
2021/03/06 05:33:00;;;;;;;10.40;6.37;;;-0.20;3.20;;;;;;5070748;28;20175;-55
2021/03/06 05:35:26;;;;;;;8.87;7.30;;;-0.10;3.30;;;;;;5069650;28;20198;-54
2021/03/06 05:37:51;;;;;;;8.17;5.97;;;-0.20;3.20;;;;;;5082795;28;20176;-55
2021/03/06 05:40:18;;;;;;;11.40;7.03;;;-0.20;5.00;;;;;;5086844;28;20182;-55
2021/03/06 05:42:44;;;;;;;11.67;6.47;;;-0.30;5.20;;;;;;5070250;28;20187;-55
2021/03/06 05:45:10;;;;;;;11.47;7.07;;;-0.20;1.00;;;;;;5071062;28;20462;-56
2021/03/06 05:47:36;;;;;;;9.13;6.43;;;-0.20;1.00;;;;;;5068880;28;20211;-54
2021/03/06 05:50:06;;;;;;;9.93;6.00;;;-0.30;1.00;;;;;;5069216;28;20537;-56
2021/03/06 05:52:32;;;;;;;10.63;8.00;;;-0.20;1.00;;;;;;5071926;28;20859;-55
2021/03/06 05:55:03;;;;;;;7.97;6.87;;;-0.20;1.00;;;;;;5069388;28;20441;-55
2021/03/06 05:57:29;;;;;;;8.40;6.40;;;-0.20;1.00;;;;;;5070248;28;20460;-56
2021/03/06 05:59:55;;;;;;;8.87;6.20;;;-0.10;1.00;;;;;;5087013;28;20436;-58
2021/03/06 06:02:21;;;;;;;10.33;6.27;;;;;;;;;;5071713;28;20438;-55
2021/03/06 06:04:47;;;;;;;7.60;6.17;;;-0.10;1.00;;;;;;5082944;28;20555;-57
2021/03/06 06:07:17;;;;;;;13.33;6.33;;;-0.10;1.00;;;;;;5071557;28;20473;-55
2021/03/06 06:09:44;;;;;;;6.97;6.03;;;-0.10;1.00;;;;;;5084147;28;20449;-55
2021/03/06 06:12:10;;;;;;;8.87;6.57;;;-0.10;1.00;;;;;;5070093;28;20453;-56
2021/03/06 06:14:40;;;;;;;8.57;5.87;;;-0.10;1.00;;;;;;5075944;28;20464;-55
2021/03/06 06:17:10;;;;;;;8.83;6.60;;;0.00;1.00;;;;;;5076856;28;20445;-56
2021/03/06 06:19:37;;;;;;;8.40;6.83;;;0.00;1.00;;;;;;5086595;28;20452;-55
2021/03/06 06:22:21;;;;;;;9.20;6.40;;;0.00;1.00;;;;;;5076717;28;20518;-54
2021/03/06 06:24:49;;;;;;;6.13;5.53;;;0.00;1.00;;;;;;5073565;28;20432;-60
2021/03/06 06:27:25;;;;;;;7.10;6.00;;;0.10;1.00;;;;;;5072568;28;20476;-55
2021/03/06 06:29:54;;;;;;;7.43;5.77;;;0.10;1.00;;;;;;5073523;28;20452;-55
2021/03/06 06:32:22;;;;;;;10.40;5.80;;;0.20;1.00;;;;;;5093672;28;20437;-55
2021/03/06 06:34:58;;;;;;;9.33;5.90;;;0.20;1.00;;;;;;5086234;28;20975;-54
2021/03/06 06:37:23;;;;;;;10.53;6.07;;;0.20;1.00;;;;;;5068110;28;20542;-55
2021/03/06 06:39:49;;;;;;;9.93;6.33;;;0.30;1.00;;;;;;5073295;28;20457;-55
2021/03/06 06:42:15;;;;;;;9.60;6.57;;;0.30;1.00;;;;;;5076720;28;20460;-54
2021/03/06 06:44:56;;;;;;;9.90;6.73;;;0.50;1.00;;;;;;5083644;28;20219;-55
2021/03/06 06:47:23;;;;;;;8.13;6.30;;;0.40;1.00;;;;;;5093240;28;20710;-55
2021/03/06 06:49:53;;;;;;;7.43;6.40;;;0.60;1.00;;;;;;5082001;28;20528;-54
2021/03/06 06:52:23;;;;;;;7.53;5.70;;;0.70;1.00;;;;;;5065556;28;20447;-54
2021/03/06 06:54:53;;;;;;;7.20;5.80;;;0.80;1.00;;;;;;5072984;28;20980;-56
2021/03/06 06:57:19;;;;;;;7.77;6.50;;;;;;;;;;5071897;28;20452;-55
2021/03/06 06:59:58;;;;;;;8.33;6.23;;;0.80;1.00;;;;;;5072228;28;20450;-56
2021/03/06 07:02:25;;;;;;;7.57;4.93;;;0.90;1.00;;;;;;5071960;28;20733;-55
2021/03/06 07:04:56;;;;;;;6.50;5.30;;;1.10;1.00;;;;;;5070281;28;20435;-55
2021/03/06 07:07:34;;;;;;;11.50;5.43;;;1.10;1.00;;;;;;5072026;28;20482;-57
2021/03/06 07:10:06;;;;;;;8.07;6.20;;;1.10;1.00;;;;;;5077251;28;20593;-56
2021/03/06 07:12:35;;;;;;;9.80;5.60;;;1.30;1.00;;;;;;5092541;28;20964;-56
2021/03/06 07:15:01;;;;;;;9.83;6.30;;;1.40;1.00;;;;;;5082488;28;20443;-54
2021/03/06 07:17:37;;;;;;;7.17;5.63;;;1.50;1.00;;;;;;5089907;28;20452;-56
2021/03/06 07:20:05;;;;;;;8.97;6.30;;;1.60;1.00;;;;;;5091531;28;20530;-55
2021/03/06 07:22:31;;;;;;;7.33;6.20;;;1.90;1.00;;;;;;5080658;28;20445;-56
2021/03/06 07:24:57;;;;;;;6.57;5.90;;;2.00;1.00;;;;;;5077820;28;20445;-56
2021/03/06 07:27:22;;;;;;;6.93;6.00;;;2.40;1.00;;;;;;5089421;28;20244;-54
2021/03/06 07:29:48;;;;;;;8.27;5.87;;;2.80;1.00;;;;;;5091219;28;20447;-55
2021/03/06 07:32:16;;;;;;;8.47;6.20;;;2.90;1.00;;;;;;5079164;28;20242;-56
2021/03/06 07:34:41;;;;;;;8.40;5.67;;;3.00;1.00;;;;;;5073727;28;20494;-55
2021/03/06 07:37:08;;;;;;;8.70;6.30;;;3.00;1.00;;;;;;5078136;28;20450;-55
2021/03/06 07:39:38;;;;;;;7.80;6.20;;;3.00;1.00;;;;;;5082171;28;20277;-55
2021/03/06 07:42:14;;;;;;;7.83;5.50;;;3.10;1.00;;;;;;5072188;28;20796;-56
2021/03/06 07:44:42;;;;;;;8.10;6.17;;;3.40;1.00;;;;;;5071037;28;20497;-55
2021/03/06 07:47:12;;;;;;;6.30;5.37;;;4.20;1.00;;;;;;5065676;28;20523;-56
2021/03/06 07:49:40;;;;;;;5.97;5.37;;;4.20;1.00;;;;;;5073272;28;20526;-57
2021/03/06 07:52:06;;;;;;;5.73;5.23;;;4.60;1.00;;;;;;5072142;28;20433;-57
2021/03/06 07:54:35;;;;;;;6.80;5.83;;;4.80;1.00;;;;;;5080422;28;20535;-56
2021/03/06 07:57:01;;;;;;;5.80;4.70;;;6.30;1.00;;;;;;5082607;28;20541;-56
2021/03/06 07:59:52;;;;;;;5.90;4.80;;;4.70;1.00;;;;;;5069887;28;20531;-57
2021/03/06 08:02:38;;;;;;;5.50;4.83;;;4.80;1.00;;;;;;5071135;28;20213;-56
2021/03/06 08:05:45;;;;;;;7.73;5.87;;;4.80;1.00;;;;;;5070324;28;20954;-56
2021/03/06 08:08:36;;;;;;;7.60;5.20;;;4.90;1.00;;;;;;5071963;28;20463;-56
2021/03/06 08:11:12;;;;;;;5.93;4.80;;;4.80;1.00;;;;;;5081314;28;20523;-55
2021/03/06 08:13:55;;;;;;;5.63;4.33;;;4.90;1.00;;;;;;5075268;28;20905;-57
2021/03/06 08:16:23;;;;;;;8.87;5.00;;;5.00;1.00;;;;;;5089891;28;20440;-57
2021/03/06 08:18:53;;;;;;;11.17;5.23;;;5.10;1.00;;;;;;5086234;28;20919;-55
2021/03/06 08:21:47;;;;;;;6.70;4.97;;;5.10;1.00;;;;;;5071057;28;20448;-57
2021/03/06 08:24:16;;;;;;;5.33;4.80;;;5.10;1.00;;;;;;5067309;28;20445;-55
2021/03/06 08:26:53;;;;;;;7.80;6.03;;;5.00;1.00;;;;;;5069553;28;21045;-55
2021/03/06 08:29:22;;;;;;;6.00;5.40;;;5.10;1.00;;;;;;5069233;28;20424;-58
2021/03/06 08:32:15;;;;;;;7.70;5.30;;;5.10;1.00;;;;;;5085962;28;20428;-59
2021/03/06 08:34:44;;;;;;;7.17;4.87;;;5.30;1.00;;;;;;5078445;28;20524;-58
2021/03/06 08:37:15;;;;;;;8.83;4.90;;;5.30;1.00;;;;;;5087452;28;20543;-58
2021/03/06 08:39:41;;;;;;;6.93;5.57;;;5.30;1.00;;;;;;5071264;28;20436;-58
2021/03/06 08:42:08;;;;;;;5.90;4.43;;;5.20;1.00;;;;;;5068972;28;20484;-59
2021/03/06 08:44:34;;;;;;;5.93;4.00;;;5.40;1.00;;;;;;5071319;28;20803;-56
2021/03/06 08:47:00;;;;;;;5.10;3.60;;;5.60;1.00;;;;;;5070588;28;20458;-59
2021/03/06 08:49:27;;;;;;;5.03;4.40;;;5.80;1.00;;;;;;5065301;28;20488;-59
2021/03/06 08:51:55;;;;;;;6.47;3.90;;;5.60;1.00;;;;;;5078414;28;20484;-57
2021/03/06 08:54:21;;;;;;;7.07;5.60;;;5.50;1.00;;;;;;5072311;28;20436;-56
2021/03/06 08:56:48;;;;;;;5.93;4.87;;;5.40;1.00;;;;;;5086271;28;20439;-57
2021/03/06 08:59:13;;;;;;;7.03;4.70;;;5.60;1.00;;;;;;5090054;28;20194;-57
2021/03/06 09:01:39;;;;;;;4.40;3.97;;;5.70;1.00;;;;;;5086552;28;20425;-58
2021/03/06 09:04:05;;;;;;;3.80;3.10;;;5.80;1.00;;;;;;5091108;28;20186;-60
2021/03/06 09:06:41;;;;;;;5.23;3.43;;;5.90;1.00;;;;;;5068808;28;20211;-57
2021/03/06 09:09:10;;;;;;;7.73;3.70;;;6.10;1.00;;;;;;5069567;28;20803;-57
2021/03/06 09:12:06;;;;;;;7.20;4.10;;;6.20;1.00;;;;;;5070815;28;20430;-60
2021/03/06 09:14:31;;;;;;;8.27;3.97;;;6.10;1.00;;;;;;5057320;28;20797;-58
2021/03/06 09:16:57;;;;;;;3.83;3.47;;;6.30;1.00;;;;;;5070652;28;20481;-58
2021/03/06 09:19:27;;;;;;;3.70;2.80;;;6.40;1.00;;;;;;5070610;28;20258;-57
2021/03/06 09:22:04;;;;;;;5.30;3.77;;;6.40;1.00;;;;;;5075395;28;20171;-59
2021/03/06 09:24:50;;;;;;;4.17;3.57;;;6.40;1.00;;;;;;5090771;28;20516;-59
2021/03/06 09:27:16;;;;;;;5.30;3.63;;;6.60;1.00;;;;;;5078348;28;20559;-59
2021/03/06 09:29:43;;;;;;;3.30;2.97;;;6.40;1.00;;;;;;5085782;28;20467;-58
2021/03/06 09:32:10;;;;;;;3.50;3.17;;;6.30;1.00;;;;;;5090696;28;20436;-58
2021/03/06 09:34:36;;;;;;;4.20;3.20;;;6.20;1.00;;;;;;5086595;28;20524;-56
2021/03/06 09:37:18;;;;;;;3.70;3.10;;;8.30;1.00;;;;;;5068221;28;20450;-59
2021/03/06 09:39:44;;;;;;;5.67;3.03;;;6.60;1.00;;;;;;5070193;28;20866;-57
2021/03/06 09:42:15;;;;;;;3.23;2.60;;;6.90;1.00;;;;;;5070307;28;20465;-57
2021/03/06 09:44:47;;;;;;;3.37;2.57;;;7.00;1.00;;;;;;5068359;28;20442;-59
2021/03/06 09:47:21;;;;;;;6.30;3.10;;;6.90;1.00;;;;;;5079715;28;20818;-58
2021/03/06 09:49:47;;;;;;;5.73;2.77;;;6.70;1.00;;;;;;5073174;28;20784;-57
2021/03/06 09:52:13;;;;;;;3.47;2.30;;;6.70;1.00;;;;;;5072880;28;20531;-58
2021/03/06 09:54:38;;;;;;;3.00;2.23;;;6.50;1.00;;;;;;5068487;28;20924;-57
2021/03/06 09:57:06;;;;;;;3.80;2.50;;;6.30;1.00;;;;;;5075221;28;20186;-56
2021/03/06 09:59:37;;;;;;;2.60;2.40;;;6.30;1.00;;;;;;5073908;28;20186;-57
2021/03/06 10:02:07;;;;;;;3.23;2.47;;;6.40;1.00;;;;;;5074220;28;20429;-57
2021/03/06 10:04:33;;;;;;;2.20;2.00;;;6.60;1.00;;;;;;5073903;28;20517;-58
2021/03/06 10:07:00;;;;;;;3.10;2.80;;;6.60;1.00;;;;;;5093003;28;20563;-59
2021/03/06 10:09:32;;;;;;;2.93;2.33;;;6.60;1.00;;;;;;5070852;28;20459;-56
2021/03/06 10:12:05;;;;;;;2.30;2.10;;;6.50;1.00;;;;;;5075112;28;20437;-58
2021/03/06 10:14:31;;;;;;;3.17;2.70;;;6.50;1.00;;;;;;5069257;28;20827;-58
2021/03/06 10:16:59;;;;;;;2.80;2.47;;;6.70;1.00;;;;;;5073405;28;20517;-56
2021/03/06 10:19:33;;;;;;;2.87;2.20;;;6.70;1.00;;;;;;5073856;28;20938;-57
2021/03/06 10:22:07;;;;;;;2.30;2.10;;;6.90;1.00;;;;;;5073484;28;20436;-58
2021/03/06 10:24:52;;;;;;;2.83;2.63;;;7.10;1.00;;;;;;5073831;28;20848;-58
2021/03/06 10:27:30;;;;;;;2.57;2.40;;;7.20;1.00;;;;;;5073444;28;20473;-57
2021/03/06 10:30:23;;;;;;;4.13;2.20;;;7.20;1.00;;;;;;5085747;28;20459;-58
2021/03/06 10:33:00;;;;;;;4.60;2.70;;;6.90;1.00;;;;;;5093531;28;20451;-58
2021/03/06 10:35:35;;;;;;;5.30;2.93;;;6.90;1.00;;;;;;5093921;28;20947;-57
2021/03/06 10:38:03;;;;;;;4.67;3.23;;;6.70;1.00;;;;;;5093296;28;20450;-57
2021/03/06 10:40:47;;;;;;;3.03;2.80;;;6.70;1.00;;;;;;5093918;28;20497;-58
2021/03/06 10:43:32;;;;;;;4.50;2.70;;;7.10;1.00;;;;;;5083423;28;20860;-57
2021/03/06 10:46:29;;;;;;;4.80;3.00;;;6.30;1.00;;;;;;5073610;28;20891;-58
2021/03/06 10:49:00;;;;;;;4.60;2.73;;;6.70;1.00;;;;;;5061212;28;20469;-56
2021/03/06 10:51:49;;;;;;;3.20;2.70;;;6.60;1.00;;;;;;5077266;28;21123;-58
2021/03/06 10:54:15;;;;;;;2.90;2.60;;;6.60;1.00;;;;;;5072414;28;20791;-55
2021/03/06 10:56:41;;;;;;;3.70;2.50;;;6.80;1.00;;;;;;5071653;28;20441;-57
2021/03/06 10:59:07;;;;;;;3.60;2.70;;;6.80;1.00;;;;;;5080005;28;20622;-57
2021/03/06 11:01:47;;;;;;;5.93;2.77;;;7.00;1.00;;;;;;5073137;28;20471;-55
2021/03/06 11:04:29;;;;;;;2.90;2.30;;;7.00;1.00;;;;;;5081102;28;20441;-56
2021/03/06 11:06:57;;;;;;;3.10;2.70;;;7.00;1.00;;;;;;5071631;28;20466;-56
2021/03/06 11:09:32;;;;;;;2.73;2.40;;;7.30;1.00;;;;;;5079441;28;20438;-57
2021/03/06 11:12:17;;;;;;;3.07;2.63;;;7.30;1.00;;;;;;5075819;28;20437;-57
2021/03/06 11:14:43;;;;;;;4.80;3.30;;;7.30;1.00;;;;;;5072758;28;20430;-56
2021/03/06 11:17:14;;;;;;;2.80;2.50;;;7.20;1.00;;;;;;5071414;28;20433;-58
2021/03/06 11:19:42;;;;;;;3.23;2.93;;;6.80;1.00;;;;;;5071504;28;20973;-59
2021/03/06 11:22:08;;;;;;;3.43;2.70;;;6.80;1.00;;;;;;5072292;28;20442;-59
2021/03/06 11:24:34;;;;;;;8.67;4.07;;;6.90;1.00;;;;;;5072566;28;21024;-57
2021/03/06 11:27:00;;;;;;;2.83;2.60;;;7.10;1.00;;;;;;5072389;28;20501;-59
2021/03/06 11:29:25;;;;;;;3.67;2.60;;;7.30;1.00;;;;;;5070597;28;20314;-59
2021/03/06 11:31:52;;;;;;;3.50;2.90;;;7.30;1.00;;;;;;5071550;28;20199;-59
2021/03/06 11:34:17;;;;;;;4.77;3.10;;;7.10;1.00;;;;;;5070458;28;20187;-58
2021/03/06 11:36:43;;;;;;;5.47;4.97;;;7.20;1.00;;;;;;5075521;28;20479;-59
2021/03/06 11:39:08;;;;;;;2.90;2.63;;;7.50;1.00;;;;;;5071119;28;20199;-58
2021/03/06 11:41:34;;;;;;;3.60;3.20;;;7.40;1.00;;;;;;5076767;28;20198;-57
2021/03/06 11:44:00;;;;;;;3.67;3.30;;;;;;;;;;5074614;28;20194;-58
2021/03/06 11:46:25;;;;;;;5.07;3.03;;;7.40;1.00;;;;;;5070260;28;20184;-57
2021/03/06 11:48:51;;;;;;;4.30;3.17;;;7.50;1.00;;;;;;5071764;28;20438;-58
2021/03/06 11:51:16;;;;;;;3.00;2.80;;;7.50;1.00;;;;;;5089015;28;20190;-58
2021/03/06 11:53:42;;;;;;;4.57;3.60;;;7.50;1.00;;;;;;5079839;28;20175;-58
2021/03/06 11:56:08;;;;;;;4.77;2.90;;;7.60;1.00;;;;;;5077476;28;20493;-57
2021/03/06 11:58:33;;;;;;;2.80;2.60;;;7.50;1.00;;;;;;5082489;28;20460;-57
2021/03/06 12:00:59;;;;;;;3.53;2.80;;;7.90;1.00;;;;;;5069063;28;20194;-58
2021/03/06 12:03:24;;;;;;;3.33;2.37;;;8.00;1.00;;;;;;5073315;28;20183;-58
2021/03/06 12:05:50;;;;;;;4.00;3.00;;;7.90;1.00;;;;;;5073458;28;20179;-56
2021/03/06 12:08:15;;;;;;;2.80;2.30;;;7.90;1.00;;;;;;5071448;28;20195;-57
2021/03/06 12:10:41;;;;;;;3.30;2.50;;;7.50;1.00;;;;;;5069547;28;20696;-58
2021/03/06 12:13:07;;;;;;;3.17;2.87;;;7.50;1.00;;;;;;5071107;28;20228;-56
2021/03/06 12:15:32;;;;;;;3.00;2.60;;;7.50;1.00;;;;;;5072762;28;20186;-57
2021/03/06 12:17:58;;;;;;;2.90;2.60;;;7.30;1.00;;;;;;5085601;28;20191;-57
2021/03/06 12:20:24;;;;;;;3.00;2.80;;;7.20;1.00;;;;;;5091862;28;20281;-57
2021/03/06 12:22:49;;;;;;;3.27;2.97;;;7.30;1.00;;;;;;5080727;28;20187;-57
2021/03/06 12:25:15;;;;;;;3.60;2.50;;;7.70;1.00;;;;;;5072971;28;20222;-58
2021/03/06 12:27:42;;;;;;;3.00;2.70;;;7.80;1.00;;;;;;5070515;28;20231;-58
2021/03/06 12:30:11;;;;;;;3.30;3.00;;;7.90;1.00;;;;;;5070049;28;20487;-55
2021/03/06 12:32:37;;;;;;;4.87;3.37;;;7.90;1.00;;;;;;5070914;28;20976;-58
2021/03/06 12:35:05;;;;;;;2.73;2.53;;;8.00;1.00;;;;;;5071028;28;20462;-58
2021/03/06 12:37:32;;;;;;;3.77;3.13;;;7.80;1.00;;;;;;5071068;28;20495;-57
2021/03/06 12:39:57;;;;;;;2.37;2.10;;;7.90;1.00;;;;;;5089520;28;20448;-56
2021/03/06 12:42:23;;;;;;;3.80;2.73;;;;;;;;;;5090126;28;20440;-58
2021/03/06 12:44:49;;;;;;;3.57;2.93;;;7.60;1.00;;;;;;5090923;28;20179;-58
2021/03/06 12:47:15;;;;;;;3.70;3.13;;;7.70;1.00;;;;;;5076684;28;20488;-59
2021/03/06 12:49:40;;;;;;;3.10;2.80;;;7.70;1.00;;;;;;5070572;28;20300;-57
2021/03/06 12:52:06;;;;;;;3.57;3.33;;;7.80;1.00;;;;;;5070974;28;20436;-56
2021/03/06 12:54:32;;;;;;;3.27;2.97;;;7.90;1.00;;;;;;5070953;28;20636;-58
2021/03/06 12:56:57;;;;;;;3.33;3.03;;;7.90;1.00;;;;;;5070416;28;20191;-58
2021/03/06 12:59:24;;;;;;;5.20;3.00;;;7.80;1.00;;;;;;5070949;28;20190;-58
2021/03/06 13:01:49;;;;;;;3.77;2.73;;;7.90;1.00;;;;;;5070648;28;20195;-58
2021/03/06 13:04:15;;;;;;;7.60;3.03;;;7.90;1.00;;;;;;5069417;28;20442;-58
2021/03/06 13:06:41;;;;;;;4.30;3.90;;;7.60;1.00;;;;;;5070012;28;20199;-57
2021/03/06 13:09:06;;;;;;;2.87;2.67;;;7.80;1.00;;;;;;5069317;28;20190;-55
2021/03/06 13:11:32;;;;;;;3.60;3.03;;;7.40;1.00;;;;;;5074412;28;20218;-56
2021/03/06 13:13:58;;;;;;;2.80;2.60;;;7.40;1.00;;;;;;5085253;28;20186;-58
2021/03/06 13:16:23;;;;;;;3.37;2.53;;;7.60;1.00;;;;;;5091006;28;20179;-58